This demonstration page uses our WeatherBlox Daily Observations layout. Learn more.

38.89511, -77.03637

Hourly Observations for February 27, 2020

Temp ( °F °C ) Dew Point ( °F °C ) Humidity (%) Winds ( mph kmh ) Pressure ( in mb ) Visibility ( mi km ) Precip ( " mm )
12:52 am 00:52 Cloudy with Light Rain 44 6.7 40 4.4 85 85 NW 17 28 29.57 1001 10 16.0934 0.02 0.508
1:52 am 01:52 Cloudy with Light Rain 43 6.1 38 3.3 82 82 NW 17 28 29.6 1002 10 16.0934 0.04 1.016
2:52 am 02:52 Partly Cloudy 43 6.1 32 0 65 65 WNW 14 22 29.59 1002 10 16.0934 0.001 0.001
3:52 am 03:52 Mostly Cloudy 42 5.6 32 0 68 68 WNW 9 15 29.61 1003 10 16.0934 0 0
4:52 am 04:52 Partly Cloudy 41 5 26 -3.3 55 55 W 13 20 29.64 1004 10 16.0934 0 0
5:52 am 05:52 Partly Cloudy 41 5 26 -3.3 55 55 W 17 28 29.66 1004 10 16.0934 0 0
6:52 am 06:52 Mostly Cloudy 39 3.9 27 -2.8 62 62 WNW 14 22 29.7 1006 10 16.0934 0 0
7:52 am 07:52 Mostly Cloudy 38 3.3 22 -5.6 52 52 WNW 21 33 29.75 1007 10 16.0934 0 0
8:52 am 08:52 Partly Cloudy 39 3.9 20 -6.7 46 46 WNW 20 31 29.79 1009 10 16.0934 0 0
9:52 am 09:52 Mostly Cloudy 40 4.4 19 -7.2 43 43 WNW 22 35 29.8 1009 10 16.0934 0 0
10:52 am 10:52 Mostly Cloudy 41 5 18 -7.8 39 39 WNW 18 30 29.8 1009 10 16.0934 0 0
11:52 am 11:52 Mostly Cloudy 44 6.7 19 -7.2 37 37 WNW 17 28 29.82 1010 10 16.0934 0 0
12:52 pm 12:52 Partly Cloudy 45 7.2 17 -8.3 33 33 WNW 23 37 29.82 1010 10 16.0934 0 0
1:52 pm 13:52 Partly Cloudy 43 6.1 15 -9.4 32 32 WNW 24 39 29.83 1010 10 16.0934 0 0
2:52 pm 14:52 Partly Cloudy 44 6.7 16 -8.9 32 32 NW 20 31 29.84 1011 10 16.0934 0 0
3:52 pm 15:52 Mostly Sunny 43 6.1 15 -9.4 32 32 NW 21 33 29.86 1011 10 16.0934 0 0
4:52 pm 16:52 Mostly Sunny 41 5 15 -9.4 35 35 WNW 20 31 29.88 1012 10 16.0934 0 0
5:52 pm 17:52 Mostly Sunny 39 3.9 15 -9.4 38 38 WNW 16 26 29.92 1013 10 16.0934 0 0
6:52 pm 18:52 Mostly Clear 37 2.8 13 -10.6 37 37 WNW 14 22 29.96 1015 10 16.0934 0 0
7:52 pm 19:52 Mostly Clear 35 1.7 14 -10 42 42 NW 17 28 29.99 1016 10 16.0934 0 0
8:52 pm 20:52 Mostly Clear 35 1.7 11 -11.7 37 37 WNW 14 22 30.01 1016 10 16.0934 0 0
9:52 pm 21:52 Mostly Clear 34 1.1 12 -11.1 40 40 WSW 8 13 30 1016 10 16.0934 0 0
10:52 pm 22:52 Mostly Clear 32 0 14 -10 47 47 SW 9 15 30 1016 10 16.0934 0 0
11:52 pm 23:52 Mostly Clear 32 0 14 -10 47 47 SW 10 17 29.99 1016 10 16.0934 0 0

Powered by AerisWeather